Time;durP1;ratioP1;P1;durP2;ratioP2;P2;SDS_P1;SDS_P2;PMS_P1;PMS_P2;Temp;Humidity;BMP_temperature;BMP_pressure;BME280_temperature;BME280_humidity;BME280_pressure;Samples;Min_cycle;Max_cycle;Signal;HPM_P1;HPM_P2
2023/09/18 01:19:02;;;;;;;5.40;4.30;;;21.10;99.90;;;;;;5947141;23;20449;-80
2023/09/18 02:08:22;;;;;;;7.00;3.23;;;21.90;99.90;;;;;;6089178;23;20520;-82
2023/09/18 02:17:39;;;;;;;7.27;3.23;;;21.90;99.90;;;;;;6218450;23;20908;-81
2023/09/18 02:30:11;;;;;;;9.83;4.40;;;21.70;99.90;;;;;;6248566;23;20785;-81
2023/09/18 02:33:07;;;;;;;9.40;3.20;;;21.70;99.90;;;;;;6253850;23;20401;-83
2023/09/18 02:36:47;;;;;;;8.33;3.80;;;21.70;99.90;;;;;;6254570;23;20440;-80
2023/09/18 02:41:00;;;;;;;;;;;;;;;;;;;;;
2023/09/18 02:50:23;;;;;;;6.73;3.10;;;21.80;99.90;;;;;;6060755;23;20443;-81
2023/09/18 02:53:34;;;;;;;8.87;3.20;;;21.80;99.90;;;;;;6104898;23;20404;-81
2023/09/18 02:56:48;;;;;;;7.70;3.87;;;21.80;99.90;;;;;;6190134;23;20525;-82
2023/09/18 03:06:02;;;;;;;11.20;3.47;;;21.60;99.90;;;;;;6186104;23;20421;-81
2023/09/18 03:09:29;;;;;;;;;;;;;;;;;;;;;
2023/09/18 03:12:30;;;;;;;;;;;;;;;;;;;;;
2023/09/18 03:15:28;;;;;;;5.80;3.13;;;21.40;99.90;;;;;;6253477;23;20425;-83
2023/09/18 03:21:36;;;;;;;6.03;3.30;;;21.20;99.90;;;;;;6187888;23;20400;-81
2023/09/18 03:24:49;;;;;;;8.13;3.10;;;21.10;99.90;;;;;;6251884;23;20433;-81
2023/09/18 03:34:09;;;;;;;6.27;3.40;;;21.10;99.90;;;;;;6253454;23;20405;-81
2023/09/18 03:37:11;;;;;;;7.43;3.20;;;21.00;99.90;;;;;;6247557;23;20922;-81
2023/09/18 03:40:14;;;;;;;6.30;3.27;;;20.90;99.90;;;;;;6271204;22;20484;-80
2023/09/18 03:43:07;;;;;;;7.53;3.80;;;20.90;99.90;;;;;;6272632;22;20445;-79
2023/09/18 03:48:58;;;;;;;10.73;3.50;;;20.80;99.90;;;;;;6253515;22;20385;-78
2023/09/18 03:51:56;;;;;;;12.63;4.07;;;20.80;99.90;;;;;;6272357;22;20424;-80
2023/09/18 03:54:59;;;;;;;10.07;3.40;;;20.80;99.90;;;;;;6271972;22;20452;-80
2023/09/18 04:01:43;;;;;;;7.33;2.63;;;20.90;99.90;;;;;;6148945;23;20393;-80
2023/09/18 05:19:31;;;;;;;7.27;4.83;;;20.40;99.90;;;;;;6165356;23;20408;-82
2023/09/18 05:22:52;;;;;;;9.13;4.27;;;20.40;99.90;;;;;;6170617;23;20412;-81
2023/09/18 05:26:07;;;;;;;9.10;5.10;;;20.40;99.90;;;;;;6170640;23;20435;-83
2023/09/18 05:32:44;;;;;;;;;;;;;;;;;;;;;
2023/09/18 05:35:36;;;;;;;8.20;2.83;;;20.60;99.90;;;;;;6018080;23;21052;-82
2023/09/18 05:48:03;;;;;;;8.40;2.70;;;20.60;99.90;;;;;;6167093;23;20415;-81
2023/09/18 05:51:10;;;;;;;;;;;;;;;;;;;;;
2023/09/18 05:57:20;;;;;;;8.10;4.13;;;20.60;99.90;;;;;;6080951;23;20403;-80
2023/09/18 06:00:25;;;;;;;10.77;4.30;;;20.60;99.90;;;;;;6165686;23;20412;-84
2023/09/18 06:03:51;;;;;;;9.10;3.03;;;20.60;99.90;;;;;;6019364;23;20497;-82
2023/09/18 06:06:59;;;;;;;12.50;4.00;;;20.20;99.90;;;;;;6161314;23;20504;-81
2023/09/18 06:13:51;;;;;;;7.83;3.77;;;20.60;99.90;;;;;;6138880;23;20513;-81
2023/09/18 06:24:42;;;;;;;7.87;4.60;;;20.60;99.90;;;;;;6079350;23;20514;-82
2023/09/18 06:27:50;;;;;;;;;;;;;;;;;;;;;
2023/09/18 06:30:38;;;;;;;9.30;3.40;;;20.60;99.90;;;;;;6076266;23;20425;-80
2023/09/18 06:36:14;;;;;;;6.40;4.23;;;20.50;99.90;;;;;;6161053;23;20450;-82
2023/09/18 06:39:02;;;;;;;6.73;3.80;;;20.50;99.90;;;;;;6161469;23;20414;-81
2023/09/18 06:41:48;;;;;;;7.43;3.80;;;20.50;99.90;;;;;;6160706;23;20491;-83
2023/09/18 06:48:32;;;;;;;10.17;3.57;;;20.50;99.90;;;;;;5963616;24;20418;-81
2023/09/18 06:51:15;;;;;;;11.63;4.40;;;20.50;99.90;;;;;;5961707;24;20423;-80
2023/09/18 06:53:52;;;;;;;8.07;3.53;;;20.50;99.90;;;;;;6057135;23;20414;-82
2023/09/18 06:56:44;;;;;;;5.97;3.80;;;20.50;99.90;;;;;;6049609;23;20427;-81
2023/09/18 06:59:19;;;;;;;6.10;3.57;;;20.40;99.90;;;;;;6126696;23;20447;-79
2023/09/18 07:04:56;;;;;;;7.47;3.60;;;20.40;99.90;;;;;;6156674;23;20412;-80
2023/09/18 07:10:13;;;;;;;8.40;3.13;;;20.40;99.90;;;;;;6133728;23;20572;-81
2023/09/18 07:13:06;;;;;;;5.43;4.00;;;20.50;99.90;;;;;;6167641;23;20525;-83
2023/09/18 07:15:36;;;;;;;7.33;3.50;;;20.50;99.90;;;;;;6169324;23;20486;-81
2023/09/18 07:18:09;;;;;;;8.83;3.37;;;20.60;99.90;;;;;;6167166;23;20446;-80
2023/09/18 07:20:45;;;;;;;5.40;3.40;;;20.60;99.90;;;;;;6163044;23;20467;-81
2023/09/18 07:23:24;;;;;;;4.90;3.10;;;20.60;99.90;;;;;;6161458;23;20440;-80
2023/09/18 07:26:06;;;;;;;6.43;3.70;;;20.60;99.90;;;;;;6162555;23;20435;-83
2023/09/18 07:28:44;;;;;;;5.53;2.80;;;20.70;99.90;;;;;;6163777;23;20422;-82
2023/09/18 07:34:40;;;;;;;4.63;2.30;;;20.80;99.90;;;;;;6171068;23;20403;-80
2023/09/18 07:37:20;;;;;;;8.60;2.10;;;20.80;99.90;;;;;;6173673;23;20412;-81
2023/09/18 07:39:56;;;;;;;1.80;1.70;;;20.90;99.90;;;;;;6168798;23;20420;-83
2023/09/18 07:42:30;;;;;;;3.27;1.53;;;20.90;99.90;;;;;;6166317;23;20503;-81
2023/09/18 07:45:10;;;;;;;5.80;1.70;;;20.90;99.90;;;;;;6165374;23;20442;-81
2023/09/18 07:48:02;;;;;;;4.13;1.90;;;21.00;99.90;;;;;;6164645;23;20447;-82
2023/09/18 07:50:36;;;;;;;3.00;1.40;;;21.00;99.90;;;;;;6164724;23;20428;-81
2023/09/18 07:53:09;;;;;;;1.90;1.40;;;21.10;99.90;;;;;;6162536;23;20462;-80
2023/09/18 07:55:49;;;;;;;4.57;1.63;;;21.20;99.90;;;;;;6165346;23;20459;-80
2023/09/18 07:58:38;;;;;;;1.73;1.23;;;21.20;99.90;;;;;;6166912;23;20416;-79
2023/09/18 08:01:35;;;;;;;3.50;1.53;;;21.20;99.90;;;;;;6166307;23;20431;-81
2023/09/18 08:07:02;;;;;;;3.37;1.97;;;21.20;99.90;;;;;;6164242;23;20412;-81
2023/09/18 08:09:40;;;;;;;2.60;1.60;;;21.30;99.90;;;;;;6163600;23;20412;-80
2023/09/18 08:12:22;;;;;;;2.50;1.20;;;21.30;99.90;;;;;;6162342;23;20458;-81
2023/09/18 08:15:02;;;;;;;2.33;1.20;;;21.30;99.90;;;;;;6160701;23;20431;-81
2023/09/18 08:17:46;;;;;;;5.00;1.23;;;21.30;99.90;;;;;;6161135;23;20415;-80
2023/09/18 08:20:20;;;;;;;2.03;1.10;;;21.30;99.90;;;;;;6160899;23;20490;-80
2023/09/18 08:26:22;;;;;;;1.37;1.23;;;21.20;99.90;;;;;;6130543;23;20488;-82
2023/09/18 08:29:06;;;;;;;2.60;1.20;;;21.20;99.90;;;;;;6018594;23;20455;-82
2023/09/18 08:31:45;;;;;;;1.83;1.60;;;21.30;99.90;;;;;;6158708;23;20411;-81
2023/09/18 08:37:30;;;;;;;4.43;1.67;;;21.20;99.90;;;;;;6099407;23;20432;-80
2023/09/18 08:40:41;;;;;;;2.90;1.73;;;21.30;99.90;;;;;;6155554;23;20810;-80
2023/09/18 08:43:29;;;;;;;3.13;1.63;;;21.20;99.90;;;;;;6162687;23;20443;-81
2023/09/18 08:46:30;;;;;;;4.00;1.70;;;21.30;99.90;;;;;;6161364;23;20535;-79
2023/09/18 08:49:04;;;;;;;1.87;1.40;;;21.20;99.90;;;;;;6163096;23;20435;-79
2023/09/18 08:51:54;;;;;;;1.40;1.30;;;21.20;99.90;;;;;;6163205;23;20411;-80
2023/09/18 08:54:51;;;;;;;1.90;1.40;;;21.10;99.90;;;;;;6163671;23;20470;-82
2023/09/18 08:57:25;;;;;;;3.80;1.73;;;20.90;99.90;;;;;;6162792;23;20446;-78
2023/09/18 09:00:16;;;;;;;3.30;1.30;;;20.90;99.90;;;;;;6165186;23;20412;-79
2023/09/18 09:02:55;;;;;;;2.60;1.80;;;20.80;99.90;;;;;;6173049;23;20412;-79
2023/09/18 09:05:40;;;;;;;2.13;1.47;;;20.80;99.90;;;;;;6169593;23;20434;-81
2023/09/18 09:08:17;;;;;;;2.17;1.33;;;20.80;99.90;;;;;;6163969;23;20416;-80
2023/09/18 09:10:58;;;;;;;2.57;1.93;;;20.60;99.90;;;;;;6163497;23;20407;-79
2023/09/18 09:13:42;;;;;;;1.60;1.23;;;20.50;99.90;;;;;;6135407;23;20416;-78
2023/09/18 09:16:47;;;;;;;1.53;1.43;;;20.60;99.90;;;;;;6161240;23;20419;-78
2023/09/18 09:22:33;;;;;;;1.90;1.53;;;20.50;99.90;;;;;;6160274;23;20392;-80
2023/09/18 09:25:09;;;;;;;3.67;1.40;;;20.40;99.90;;;;;;6161391;23;20448;-79
2023/09/18 09:28:13;;;;;;;2.07;1.67;;;20.50;99.90;;;;;;6162677;23;20415;-81
2023/09/18 09:31:30;;;;;;;2.20;1.83;;;20.40;99.90;;;;;;6162302;23;20478;-80
2023/09/18 09:34:08;;;;;;;3.47;1.67;;;20.10;99.90;;;;;;6071762;23;20403;-82
2023/09/18 09:37:06;;;;;;;2.87;1.23;;;20.00;99.90;;;;;;6071658;23;20487;-81
2023/09/18 09:39:37;;;;;;;1.70;1.50;;;20.00;99.90;;;;;;6158838;23;20412;-79
2023/09/18 09:42:09;;;;;;;2.30;1.30;;;20.00;99.90;;;;;;6160166;23;20748;-79
2023/09/18 09:44:40;;;;;;;2.97;1.83;;;19.90;99.90;;;;;;6160884;23;20519;-79
2023/09/18 09:47:13;;;;;;;1.83;1.43;;;20.00;99.90;;;;;;6159418;23;20420;-79
2023/09/18 09:49:54;;;;;;;3.97;1.60;;;20.10;99.90;;;;;;6160094;23;20793;-79
2023/09/18 09:52:34;;;;;;;1.90;1.40;;;20.10;99.90;;;;;;6160106;23;20422;-79
2023/09/18 09:55:06;;;;;;;2.00;1.83;;;20.10;99.90;;;;;;6159058;23;20435;-78
2023/09/18 09:57:51;;;;;;;2.70;1.60;;;20.20;99.90;;;;;;6163967;23;20377;-78
2023/09/18 10:00:33;;;;;;;3.90;1.87;;;20.20;99.90;;;;;;6160863;23;20412;-80
2023/09/18 10:03:06;;;;;;;5.13;1.90;;;20.30;99.90;;;;;;6161052;23;20400;-79
2023/09/18 10:05:47;;;;;;;2.50;1.87;;;20.30;99.90;;;;;;6159555;23;20997;-80
2023/09/18 10:08:21;;;;;;;1.93;1.80;;;20.40;99.90;;;;;;6162989;23;20439;-80
2023/09/18 10:10:56;;;;;;;2.87;1.93;;;20.40;99.90;;;;;;6160808;23;20432;-80
2023/09/18 10:13:41;;;;;;;1.70;1.60;;;20.40;99.90;;;;;;6160807;23;20471;-79
2023/09/18 10:16:18;;;;;;;1.60;1.43;;;20.30;99.90;;;;;;6162589;23;20438;-80
2023/09/18 10:18:59;;;;;;;3.13;1.43;;;20.40;99.90;;;;;;6161207;23;20423;-78
2023/09/18 10:22:12;;;;;;;5.80;1.90;;;20.30;99.90;;;;;;6163688;23;20981;-78
2023/09/18 10:25:02;;;;;;;3.73;1.60;;;20.20;99.90;;;;;;6163392;23;20839;-80
2023/09/18 10:27:33;;;;;;;4.27;1.70;;;20.20;99.90;;;;;;6162952;23;20420;-82
2023/09/18 10:30:05;;;;;;;1.67;1.57;;;20.20;99.90;;;;;;6163687;23;20420;-81
2023/09/18 10:32:35;;;;;;;6.53;3.67;;;20.10;99.90;;;;;;6163452;23;20468;-81
2023/09/18 10:35:07;;;;;;;3.13;2.53;;;20.10;99.90;;;;;;6162446;23;20422;-82
2023/09/18 10:40:57;;;;;;;5.30;2.50;;;20.10;99.90;;;;;;6162741;23;20416;-80
2023/09/18 10:43:49;;;;;;;4.73;1.90;;;20.00;99.90;;;;;;6165760;23;20414;-80
2023/09/18 10:46:32;;;;;;;4.83;3.50;;;19.90;99.90;;;;;;6163716;23;20443;-79
2023/09/18 10:49:31;;;;;;;3.07;1.50;;;19.90;99.90;;;;;;6164134;23;20431;-79
2023/09/18 11:28:18;;;;;;;2.27;2.00;;;19.90;99.90;;;;;;5700518;24;20527;-79
2023/09/18 11:30:57;;;;;;;2.63;2.07;;;19.90;99.90;;;;;;5768755;24;20452;-80
2023/09/18 11:33:45;;;;;;;4.23;2.17;;;19.90;99.90;;;;;;5939401;24;20426;-78
2023/09/18 11:36:38;;;;;;;3.67;2.20;;;19.90;99.90;;;;;;6156497;23;20463;-78
2023/09/18 11:39:22;;;;;;;2.90;1.80;;;19.90;99.90;;;;;;6160153;23;20419;-79
2023/09/18 11:42:18;;;;;;;4.63;4.23;;;19.90;99.90;;;;;;6164906;23;20416;-79
2023/09/18 11:44:59;;;;;;;2.77;2.07;;;20.00;99.90;;;;;;6168291;23;20471;-79
2023/09/18 11:47:32;;;;;;;1.97;1.87;;;20.00;99.90;;;;;;6166132;23;20395;-79
2023/09/18 11:50:01;;;;;;;3.50;2.10;;;20.00;99.90;;;;;;6166395;23;20420;-81
2023/09/18 11:52:39;;;;;;;2.57;1.67;;;19.90;99.90;;;;;;6163639;23;20416;-79
2023/09/18 11:55:13;;;;;;;1.90;1.40;;;20.20;99.90;;;;;;6162573;23;20437;-82
2023/09/18 11:57:43;;;;;;;2.20;1.57;;;20.10;99.90;;;;;;6162111;23;20407;-78
2023/09/18 12:00:23;;;;;;;2.30;1.50;;;19.70;99.90;;;;;;6162264;23;20623;-80
2023/09/18 12:06:35;;;;;;;3.00;1.90;;;20.20;99.90;;;;;;5992569;24;20478;-79
2023/09/18 12:12:53;;;;;;;2.00;1.57;;;20.30;99.90;;;;;;6025477;23;20823;-79
2023/09/18 12:15:35;;;;;;;5.43;1.70;;;20.30;99.90;;;;;;6079994;23;20426;-80
2023/09/18 12:18:08;;;;;;;5.07;3.17;;;20.30;99.90;;;;;;6160629;23;20470;-78
2023/09/18 12:20:46;;;;;;;9.33;7.20;;;20.30;99.90;;;;;;6163218;23;20408;-79
2023/09/18 12:23:19;;;;;;;2.33;2.10;;;20.30;99.90;;;;;;6156204;23;20490;-80
2023/09/18 12:25:50;;;;;;;3.40;1.53;;;20.40;99.90;;;;;;6156930;23;20450;-81
2023/09/18 12:28:20;;;;;;;1.70;1.40;;;20.30;99.90;;;;;;6158447;23;20420;-78
2023/09/18 12:30:55;;;;;;;1.77;1.30;;;20.30;99.90;;;;;;6157588;23;20442;-80
2023/09/18 12:33:24;;;;;;;1.87;1.53;;;20.30;99.90;;;;;;6157625;23;20937;-79
2023/09/18 12:35:53;;;;;;;1.83;1.47;;;20.30;99.90;;;;;;6158588;23;20438;-80
2023/09/18 12:38:26;;;;;;;3.23;1.43;;;20.30;99.90;;;;;;6158517;23;20429;-79
2023/09/18 12:41:05;;;;;;;1.37;1.27;;;20.40;99.90;;;;;;6158835;23;20412;-80
2023/09/18 12:43:35;;;;;;;1.80;1.50;;;20.50;99.90;;;;;;6159035;23;20447;-80
2023/09/18 12:46:07;;;;;;;1.93;1.40;;;20.50;99.90;;;;;;6159687;23;20771;-79
2023/09/18 12:48:45;;;;;;;2.27;1.63;;;20.70;99.90;;;;;;6159090;23;20451;-79
2023/09/18 12:51:22;;;;;;;2.87;1.70;;;20.80;99.90;;;;;;6161123;23;20913;-79
2023/09/18 12:54:06;;;;;;;1.70;1.60;;;21.00;99.90;;;;;;6170336;23;20404;-80
2023/09/18 12:56:34;;;;;;;3.07;1.40;;;21.20;99.90;;;;;;6169995;23;20416;-81
2023/09/18 12:59:05;;;;;;;2.70;2.00;;;21.30;99.90;;;;;;6172224;23;20467;-81
2023/09/18 13:01:42;;;;;;;2.13;1.60;;;21.50;99.90;;;;;;6169899;23;20427;-79
2023/09/18 13:10:39;;;;;;;2.93;1.77;;;21.70;99.90;;;;;;6172497;23;20476;-79
2023/09/18 13:13:30;;;;;;;3.07;1.40;;;21.80;99.90;;;;;;6177509;23;20431;-81
2023/09/18 13:16:10;;;;;;;4.10;1.50;;;21.80;99.90;;;;;;6160575;23;20430;-81
2023/09/18 13:18:42;;;;;;;1.47;1.37;;;21.90;99.90;;;;;;6171132;23;20748;-80
2023/09/18 13:21:15;;;;;;;1.63;1.43;;;21.90;99.90;;;;;;6168831;23;20419;-78
2023/09/18 13:23:52;;;;;;;1.40;1.30;;;22.10;99.90;;;;;;6167782;23;20456;-80
2023/09/18 13:26:45;;;;;;;1.83;1.10;;;22.30;99.90;;;;;;6168161;23;20408;-80
2023/09/18 13:33:02;;;;;;;1.67;1.27;;;22.30;99.90;;;;;;6097184;23;20419;-81
2023/09/18 13:35:31;;;;;;;1.93;1.77;;;22.40;99.90;;;;;;6068232;23;20440;-80
2023/09/18 13:37:58;;;;;;;6.73;1.90;;;22.50;99.90;;;;;;6163098;23;20403;-80
2023/09/18 13:40:24;;;;;;;1.47;1.27;;;22.80;99.90;;;;;;6158238;23;20396;-80
2023/09/18 13:42:51;;;;;;;2.27;1.70;;;22.90;99.90;;;;;;6157521;23;20393;-82
2023/09/18 13:45:18;;;;;;;1.80;1.37;;;23.10;99.90;;;;;;6156620;23;20971;-84
2023/09/18 13:47:45;;;;;;;1.70;1.30;;;23.20;99.90;;;;;;6158289;23;20423;-82
2023/09/18 13:50:13;;;;;;;2.57;1.50;;;23.20;99.90;;;;;;6160208;23;20619;-80
2023/09/18 13:52:41;;;;;;;3.10;1.50;;;23.10;99.90;;;;;;6159887;23;20476;-82
2023/09/18 13:55:09;;;;;;;3.27;1.67;;;23.10;99.90;;;;;;6164011;23;20955;-84
2023/09/18 13:57:36;;;;;;;1.03;0.93;;;23.10;99.90;;;;;;6159065;23;20475;-81
2023/09/18 14:00:06;;;;;;;2.83;1.53;;;23.00;99.90;;;;;;6157752;23;20407;-80
2023/09/18 14:02:33;;;;;;;3.37;1.50;;;23.10;99.90;;;;;;6157186;23;20385;-81
2023/09/18 14:05:00;;;;;;;2.20;1.47;;;23.30;99.90;;;;;;6157218;23;20440;-80
2023/09/18 14:07:27;;;;;;;1.83;1.30;;;23.20;99.90;;;;;;6157729;23;20408;-81
2023/09/18 14:09:55;;;;;;;2.73;1.50;;;23.20;99.90;;;;;;6159290;23;20396;-79
2023/09/18 14:12:22;;;;;;;2.83;1.43;;;23.20;99.90;;;;;;6156665;23;20408;-81
2023/09/18 14:14:49;;;;;;;1.53;1.43;;;23.10;99.90;;;;;;6159213;23;20428;-80
2023/09/18 14:17:17;;;;;;;1.40;1.30;;;23.10;99.90;;;;;;6159720;23;20736;-80
2023/09/18 14:19:44;;;;;;;1.70;1.30;;;23.00;99.90;;;;;;6157289;23;20424;-79
2023/09/18 14:22:11;;;;;;;2.20;1.53;;;23.10;99.90;;;;;;6155846;23;20407;-78
2023/09/18 14:24:38;;;;;;;3.13;1.50;;;23.00;99.90;;;;;;6154791;23;20447;-78
2023/09/18 14:27:06;;;;;;;1.80;1.70;;;23.20;99.90;;;;;;6154651;23;20405;-79
2023/09/18 14:29:33;;;;;;;2.60;1.80;;;23.20;99.90;;;;;;6154700;23;20397;-79
2023/09/18 14:32:00;;;;;;;1.57;1.20;;;23.30;99.90;;;;;;6154671;23;20400;-78
2023/09/18 14:34:26;;;;;;;1.30;1.20;;;23.00;99.90;;;;;;6154317;23;20426;-79
2023/09/18 14:36:53;;;;;;;3.43;1.30;;;23.00;99.90;;;;;;6154244;23;20467;-80
2023/09/18 14:39:20;;;;;;;1.63;1.40;;;23.20;99.90;;;;;;6154932;23;20426;-79
2023/09/18 14:41:47;;;;;;;1.50;1.40;;;23.20;99.90;;;;;;6157399;23;20427;-81
2023/09/18 14:44:15;;;;;;;1.90;1.30;;;23.30;99.90;;;;;;6157096;23;20511;-80
2023/09/18 14:46:43;;;;;;;1.63;1.50;;;23.50;99.90;;;;;;6157069;23;20954;-81
2023/09/18 14:49:09;;;;;;;2.87;1.50;;;23.60;99.90;;;;;;6158045;23;20700;-81
2023/09/18 14:51:36;;;;;;;1.80;1.70;;;23.70;99.90;;;;;;6154833;23;20895;-79
2023/09/18 14:54:04;;;;;;;2.97;1.73;;;23.70;99.90;;;;;;6154039;23;20407;-79
2023/09/18 14:56:31;;;;;;;1.80;1.40;;;23.90;99.90;;;;;;6154938;23;20426;-79
2023/09/18 14:58:58;;;;;;;2.77;1.50;;;24.00;99.90;;;;;;6155225;23;20775;-79
2023/09/18 15:01:26;;;;;;;2.07;1.40;;;24.20;99.90;;;;;;6155050;23;20415;-80
2023/09/18 15:03:53;;;;;;;1.57;1.47;;;24.30;99.90;;;;;;6154796;23;20408;-80
2023/09/18 15:06:19;;;;;;;1.47;1.30;;;24.50;99.90;;;;;;6157402;23;20444;-80
2023/09/18 15:08:47;;;;;;;1.30;1.20;;;24.50;99.90;;;;;;6157153;23;20426;-81
2023/09/18 15:11:17;;;;;;;2.83;1.53;;;24.40;99.90;;;;;;6157390;23;20415;-80
2023/09/18 15:13:43;;;;;;;1.30;1.30;;;24.40;99.90;;;;;;6156624;23;20427;-80
2023/09/18 15:16:10;;;;;;;3.00;1.30;;;24.30;99.90;;;;;;6158467;23;20404;-81
2023/09/18 15:18:39;;;;;;;1.40;1.20;;;24.10;99.90;;;;;;6177878;23;20384;-79
2023/09/18 15:21:06;;;;;;;1.57;1.13;;;24.10;99.90;;;;;;6162990;23;20752;-79
2023/09/18 15:23:32;;;;;;;2.33;1.57;;;23.60;99.90;;;;;;6159466;23;20455;-81
2023/09/18 15:25:59;;;;;;;2.70;1.50;;;23.50;99.90;;;;;;6158323;23;20447;-80
2023/09/18 15:28:28;;;;;;;1.40;1.30;;;23.80;99.90;;;;;;6158266;23;20727;-80
2023/09/18 15:30:56;;;;;;;1.70;1.60;;;24.00;99.90;;;;;;6158878;23;20408;-80
2023/09/18 15:33:23;;;;;;;2.50;1.30;;;24.10;99.90;;;;;;6159310;23;20930;-81
2023/09/18 15:35:53;;;;;;;1.43;1.33;;;24.30;99.90;;;;;;6159242;23;20524;-81
2023/09/18 15:38:20;;;;;;;1.93;1.30;;;24.40;99.90;;;;;;6159256;23;20392;-83
2023/09/18 15:40:47;;;;;;;1.50;1.40;;;24.50;99.90;;;;;;6158239;23;20416;-79
2023/09/18 15:43:14;;;;;;;2.50;1.67;;;24.50;99.90;;;;;;6159494;23;20396;-82
2023/09/18 15:45:41;;;;;;;3.10;2.00;;;24.60;99.90;;;;;;6158240;23;20447;-82
2023/09/18 15:48:09;;;;;;;2.47;1.70;;;24.60;99.90;;;;;;6159738;23;20809;-82
2023/09/18 15:50:35;;;;;;;4.10;1.37;;;24.70;99.90;;;;;;6158411;23;20892;-81
2023/09/18 15:53:04;;;;;;;2.80;1.60;;;24.50;99.90;;;;;;6160105;23;20404;-80
2023/09/18 15:55:30;;;;;;;1.20;1.10;;;24.60;99.90;;;;;;6155757;23;20424;-80
2023/09/18 15:57:57;;;;;;;4.10;1.50;;;24.40;99.90;;;;;;6157769;23;20404;-79
2023/09/18 16:00:24;;;;;;;2.17;1.27;;;24.70;99.90;;;;;;6157620;23;20774;-79
2023/09/18 16:02:51;;;;;;;1.40;1.30;;;24.90;99.90;;;;;;6157205;23;20465;-79
2023/09/18 16:05:25;;;;;;;2.70;1.53;;;24.90;99.90;;;;;;6159404;23;20444;-80
2023/09/18 16:07:52;;;;;;;1.27;1.17;;;24.50;99.90;;;;;;6161164;23;20860;-79
2023/09/18 16:10:20;;;;;;;2.20;1.67;;;24.40;99.90;;;;;;6162250;23;20396;-81
2023/09/18 16:12:47;;;;;;;1.40;1.40;;;24.30;99.90;;;;;;6159083;23;20755;-82
2023/09/18 16:15:14;;;;;;;1.43;1.33;;;24.20;99.90;;;;;;6157681;23;20420;-80
2023/09/18 16:17:40;;;;;;;1.60;1.50;;;24.20;99.90;;;;;;6157487;23;20415;-81
2023/09/18 16:20:08;;;;;;;2.33;1.60;;;24.10;99.90;;;;;;6159360;23;20689;-80
2023/09/18 16:22:35;;;;;;;1.60;1.43;;;23.90;99.90;;;;;;6161545;23;20400;-79
2023/09/18 16:25:01;;;;;;;1.83;1.40;;;23.80;99.90;;;;;;6165398;23;20424;-80
2023/09/18 16:27:30;;;;;;;1.80;1.50;;;23.60;99.90;;;;;;6164398;23;20731;-80
2023/09/18 16:29:57;;;;;;;2.93;1.70;;;23.60;99.90;;;;;;6159525;23;20435;-80
2023/09/18 16:32:24;;;;;;;3.27;1.90;;;23.30;99.90;;;;;;6163836;23;20408;-80
2023/09/18 16:34:51;;;;;;;1.80;1.70;;;23.10;99.90;;;;;;6166107;23;20432;-80
2023/09/18 16:37:18;;;;;;;1.77;1.53;;;23.00;99.90;;;;;;6159316;23;20408;-79
2023/09/18 16:39:45;;;;;;;2.67;1.70;;;22.90;99.90;;;;;;6155265;23;20403;-80
2023/09/18 16:42:11;;;;;;;2.03;1.80;;;22.90;99.90;;;;;;6155386;23;20404;-77
2023/09/18 16:44:41;;;;;;;1.70;1.40;;;22.90;99.90;;;;;;6155517;23;20420;-78
2023/09/18 16:47:07;;;;;;;1.30;1.30;;;23.10;99.90;;;;;;6158242;23;21005;-82
2023/09/18 16:49:35;;;;;;;1.53;1.37;;;22.80;99.90;;;;;;6160801;23;20725;-80
2023/09/18 16:52:04;;;;;;;4.10;1.63;;;22.80;99.90;;;;;;6159302;23;20404;-78
2023/09/18 16:54:31;;;;;;;3.60;1.63;;;22.70;99.90;;;;;;6157244;23;20439;-78
2023/09/18 16:56:57;;;;;;;1.57;1.47;;;22.50;99.90;;;;;;6160236;23;20396;-80
2023/09/18 16:59:27;;;;;;;2.30;1.43;;;22.50;99.90;;;;;;6161786;23;20895;-80
2023/09/18 17:01:55;;;;;;;2.33;1.20;;;22.30;99.90;;;;;;6165038;23;20500;-80
2023/09/18 17:04:22;;;;;;;1.80;1.70;;;22.30;99.90;;;;;;6164717;23;20424;-80
2023/09/18 17:06:49;;;;;;;1.97;1.77;;;22.20;99.90;;;;;;6161312;23;20436;-78
2023/09/18 17:09:15;;;;;;;1.83;1.50;;;22.10;99.90;;;;;;6161837;23;20884;-80
2023/09/18 17:11:42;;;;;;;1.93;1.80;;;22.10;99.90;;;;;;6160192;23;20400;-82
2023/09/18 17:14:09;;;;;;;2.17;1.60;;;22.00;99.90;;;;;;6160693;23;20482;-82
2023/09/18 17:16:36;;;;;;;1.67;1.50;;;22.00;99.90;;;;;;6159339;23;20404;-81
2023/09/18 17:19:05;;;;;;;2.30;1.60;;;22.00;99.90;;;;;;6159844;23;20475;-81
2023/09/18 17:21:32;;;;;;;1.90;1.70;;;21.90;99.90;;;;;;6158868;23;20408;-82
2023/09/18 17:23:59;;;;;;;4.37;2.63;;;21.80;99.90;;;;;;6157999;23;20400;-80
2023/09/18 17:26:27;;;;;;;6.27;3.23;;;21.80;99.90;;;;;;6158314;23;20435;-82
2023/09/18 17:28:55;;;;;;;3.07;2.83;;;21.80;99.90;;;;;;6158984;23;20404;-80
2023/09/18 17:31:22;;;;;;;5.47;2.90;;;21.80;99.90;;;;;;6160381;23;20439;-82
2023/09/18 17:33:50;;;;;;;4.80;2.40;;;21.80;99.90;;;;;;6159979;23;20400;-81
2023/09/18 17:36:18;;;;;;;3.23;2.93;;;21.80;99.90;;;;;;6160257;23;20491;-82
2023/09/18 17:38:46;;;;;;;4.17;3.77;;;21.80;99.90;;;;;;6160238;23;20404;-82
2023/09/18 17:41:13;;;;;;;3.13;2.10;;;21.80;99.90;;;;;;6159402;23;20510;-80
2023/09/18 17:43:39;;;;;;;2.63;2.30;;;21.70;99.90;;;;;;6158407;23;20408;-79
2023/09/18 17:46:06;;;;;;;2.73;2.30;;;21.70;99.90;;;;;;6158382;23;20969;-80
2023/09/18 17:48:33;;;;;;;5.70;3.40;;;21.60;99.90;;;;;;6159754;23;20416;-78
2023/09/18 17:51:00;;;;;;;2.40;2.20;;;21.60;99.90;;;;;;6158091;23;20411;-80
2023/09/18 17:53:28;;;;;;;2.50;2.30;;;21.60;99.90;;;;;;6160440;23;20816;-83
2023/09/18 17:55:56;;;;;;;3.00;2.40;;;21.50;99.90;;;;;;6158519;23;20503;-81
2023/09/18 17:58:23;;;;;;;2.97;2.03;;;21.50;99.90;;;;;;6159745;23;20392;-82
2023/09/18 18:00:53;;;;;;;2.10;1.90;;;21.50;99.90;;;;;;6158648;23;20400;-82
2023/09/18 18:03:20;;;;;;;3.47;2.70;;;21.30;99.90;;;;;;6158906;23;20469;-82
2023/09/18 18:05:49;;;;;;;1.53;1.40;;;21.30;99.90;;;;;;6159329;23;20444;-80
2023/09/18 18:08:16;;;;;;;1.90;1.80;;;21.20;99.90;;;;;;6159434;23;20412;-81
2023/09/18 18:10:44;;;;;;;3.07;1.90;;;21.20;99.90;;;;;;6159424;23;20408;-83
2023/09/18 18:13:12;;;;;;;1.90;1.80;;;21.10;99.90;;;;;;6159981;23;20408;-83
2023/09/18 18:15:39;;;;;;;2.27;2.07;;;21.10;99.90;;;;;;6159044;23;20412;-81
2023/09/18 18:18:07;;;;;;;2.10;1.90;;;21.10;99.90;;;;;;6157799;23;20701;-83
2023/09/18 18:20:35;;;;;;;4.37;2.37;;;21.10;99.90;;;;;;6158840;23;20407;-82
2023/09/18 18:23:04;;;;;;;2.07;1.80;;;21.00;99.90;;;;;;6158723;23;20851;-83
2023/09/18 18:25:31;;;;;;;2.83;2.63;;;20.90;99.90;;;;;;6158270;23;20486;-81
2023/09/18 18:27:59;;;;;;;2.20;2.00;;;20.90;99.90;;;;;;6159112;23;20487;-79
2023/09/18 18:30:25;;;;;;;2.30;1.73;;;20.90;99.90;;;;;;6159500;23;20392;-81
2023/09/18 18:32:52;;;;;;;2.70;1.60;;;20.90;99.90;;;;;;6158187;23;20404;-79
2023/09/18 18:35:21;;;;;;;4.20;1.93;;;20.90;99.90;;;;;;6158203;23;20420;-81
2023/09/18 18:37:48;;;;;;;2.50;1.70;;;20.80;99.90;;;;;;6158320;23;20892;-81
2023/09/18 18:40:16;;;;;;;2.03;1.90;;;21.00;99.90;;;;;;6158853;23;20898;-81
2023/09/18 18:42:42;;;;;;;3.03;2.03;;;20.80;99.90;;;;;;6156445;23;20392;-81
2023/09/18 18:45:12;;;;;;;2.00;1.77;;;20.80;99.90;;;;;;6155606;23;20416;-79
2023/09/18 18:47:39;;;;;;;3.10;1.80;;;20.80;99.90;;;;;;6155329;23;20447;-81
2023/09/18 18:50:07;;;;;;;1.70;1.60;;;20.70;99.90;;;;;;6159977;23;20408;-81
2023/09/18 18:52:34;;;;;;;2.10;1.80;;;20.80;99.90;;;;;;6157482;23;20415;-81
2023/09/18 18:55:00;;;;;;;2.97;2.70;;;20.60;99.90;;;;;;6158179;23;20412;-82
2023/09/18 18:57:27;;;;;;;3.13;2.30;;;20.60;99.90;;;;;;6158850;23;20396;-82
2023/09/18 18:59:54;;;;;;;4.23;2.40;;;20.60;99.90;;;;;;6159751;23;20412;-82
2023/09/18 19:02:23;;;;;;;3.77;1.90;;;20.60;99.90;;;;;;6159265;23;20871;-78
2023/09/18 19:04:50;;;;;;;2.27;1.90;;;20.60;99.90;;;;;;6158691;23;20428;-82
2023/09/18 19:07:19;;;;;;;2.20;2.10;;;20.60;99.90;;;;;;6158974;23;20530;-83
2023/09/18 19:09:45;;;;;;;4.83;2.10;;;20.60;99.90;;;;;;6155997;23;20416;-81
2023/09/18 19:12:12;;;;;;;1.83;1.73;;;20.50;99.90;;;;;;6157916;23;20399;-82
2023/09/18 19:14:38;;;;;;;1.90;1.80;;;20.60;99.90;;;;;;6158520;23;20432;-83
2023/09/18 19:17:05;;;;;;;2.43;2.23;;;20.50;99.90;;;;;;6178300;23;20452;-78
2023/09/18 19:19:33;;;;;;;3.23;2.23;;;20.50;99.90;;;;;;6176107;23;20172;-81
2023/09/18 19:22:00;;;;;;;2.03;1.90;;;20.50;99.90;;;;;;6155435;23;20407;-81
2023/09/18 19:24:27;;;;;;;2.40;1.80;;;20.40;99.90;;;;;;6155078;23;20424;-79
2023/09/18 19:26:54;;;;;;;2.57;2.00;;;20.40;99.90;;;;;;6155154;23;20481;-81
2023/09/18 19:29:20;;;;;;;3.13;1.90;;;20.30;99.90;;;;;;6155590;23;20396;-80
2023/09/18 19:31:48;;;;;;;2.03;1.60;;;20.30;99.90;;;;;;6159777;23;20397;-80
2023/09/18 19:34:15;;;;;;;2.03;1.83;;;20.20;99.90;;;;;;6162591;23;20428;-81
2023/09/18 19:36:48;;;;;;;1.70;1.60;;;20.10;99.90;;;;;;6162567;23;20396;-80
2023/09/18 19:39:14;;;;;;;3.07;1.40;;;20.00;99.90;;;;;;6164038;23;20399;-80
2023/09/18 19:41:41;;;;;;;1.40;1.30;;;19.90;99.90;;;;;;6169175;23;20439;-81